sensor_id;sensor_type;location;lat;lon;timestamp;pressure;altitude;pressure_sealevel;temperature;humidity
56241;BME280;42155;53.096;23.226;2023-11-19T00:00:23;100638.78;;;1.47;79.65
56241;BME280;42155;53.096;23.226;2023-11-19T00:02:23;100649.81;;;1.57;79.78
56241;BME280;42155;53.096;23.226;2023-11-19T00:04:24;100632.66;;;1.48;79.42
56241;BME280;42155;53.096;23.226;2023-11-19T00:06:24;100644.72;;;1.52;79.10
56241;BME280;42155;53.096;23.226;2023-11-19T00:08:24;100650.69;;;1.58;79.02
56241;BME280;42155;53.096;23.226;2023-11-19T00:10:25;100646.34;;;1.57;79.59
56241;BME280;42155;53.096;23.226;2023-11-19T00:12:25;100656.72;;;1.60;79.45
56241;BME280;42155;53.096;23.226;2023-11-19T00:14:26;100631.13;;;1.41;79.38
56241;BME280;42155;53.096;23.226;2023-11-19T00:16:26;100645.69;;;1.50;79.42
56241;BME280;42155;53.096;23.226;2023-11-19T00:18:27;100668.09;;;1.59;79.32
56241;BME280;42155;53.096;23.226;2023-11-19T00:20:27;100649.84;;;1.56;79.00
56241;BME280;42155;53.096;23.226;2023-11-19T00:22:27;100665.47;;;1.59;79.27
56241;BME280;42155;53.096;23.226;2023-11-19T00:24:28;100649.84;;;1.56;79.05
56241;BME280;42155;53.096;23.226;2023-11-19T00:26:28;100661.84;;;1.63;79.62
56241;BME280;42155;53.096;23.226;2023-11-19T00:28:29;100649.63;;;1.63;79.29
56241;BME280;42155;53.096;23.226;2023-11-19T00:30:29;100660.13;;;1.62;79.38
56241;BME280;42155;53.096;23.226;2023-11-19T00:32:29;100644.63;;;1.56;79.58
56241;BME280;42155;53.096;23.226;2023-11-19T00:34:29;100652.25;;;1.63;79.05
56241;BME280;42155;53.096;23.226;2023-11-19T00:36:30;100651.47;;;1.60;79.09
56241;BME280;42155;53.096;23.226;2023-11-19T00:38:30;100653.19;;;1.61;79.37
56241;BME280;42155;53.096;23.226;2023-11-19T00:40:30;100627.31;;;1.51;79.02
56241;BME280;42155;53.096;23.226;2023-11-19T00:42:31;100632.41;;;1.56;79.25
56241;BME280;42155;53.096;23.226;2023-11-19T00:44:31;100641.66;;;1.66;79.60
56241;BME280;42155;53.096;23.226;2023-11-19T00:46:31;100637.47;;;1.61;79.16
56241;BME280;42155;53.096;23.226;2023-11-19T00:48:32;100625.53;;;1.53;78.94
56241;BME280;42155;53.096;23.226;2023-11-19T00:50:33;100639.91;;;1.67;79.01
56241;BME280;42155;53.096;23.226;2023-11-19T00:52:33;100627.84;;;1.63;79.13
56241;BME280;42155;53.096;23.226;2023-11-19T00:54:33;100616.75;;;1.55;79.52
56241;BME280;42155;53.096;23.226;2023-11-19T00:56:34;100631.19;;;1.66;79.13
56241;BME280;42155;53.096;23.226;2023-11-19T00:58:34;100631.09;;;1.69;79.57
56241;BME280;42155;53.096;23.226;2023-11-19T01:00:34;100612.00;;;1.67;79.58
56241;BME280;42155;53.096;23.226;2023-11-19T01:02:35;100607.47;;;1.72;79.44
56241;BME280;42155;53.096;23.226;2023-11-19T01:04:35;100596.28;;;1.67;79.31
56241;BME280;42155;53.096;23.226;2023-11-19T01:06:36;100593.81;;;1.63;79.01
56241;BME280;42155;53.096;23.226;2023-11-19T01:08:36;100576.63;;;1.56;78.83
56241;BME280;42155;53.096;23.226;2023-11-19T01:10:37;100575.66;;;1.58;79.56
56241;BME280;42155;53.096;23.226;2023-11-19T01:12:37;100582.69;;;1.56;79.08
56241;BME280;42155;53.096;23.226;2023-11-19T01:14:38;100550.13;;;1.40;79.12
56241;BME280;42155;53.096;23.226;2023-11-19T01:16:39;100564.53;;;1.51;79.06
56241;BME280;42155;53.096;23.226;2023-11-19T01:18:39;100569.84;;;1.50;78.93
56241;BME280;42155;53.096;23.226;2023-11-19T01:20:39;100560.22;;;1.50;79.45
56241;BME280;42155;53.096;23.226;2023-11-19T01:22:40;100524.44;;;1.26;79.17
56241;BME280;42155;53.096;23.226;2023-11-19T01:24:40;100545.44;;;1.49;78.99
56241;BME280;42155;53.096;23.226;2023-11-19T01:26:40;100537.75;;;1.45;78.97
56241;BME280;42155;53.096;23.226;2023-11-19T01:28:41;100549.69;;;1.52;79.50
56241;BME280;42155;53.096;23.226;2023-11-19T01:30:41;100535.19;;;1.43;79.35
56241;BME280;42155;53.096;23.226;2023-11-19T01:32:41;100513.28;;;1.21;79.18
56241;BME280;42155;53.096;23.226;2023-11-19T01:34:42;100535.50;;;1.34;79.74
56241;BME280;42155;53.096;23.226;2023-11-19T01:36:42;100533.78;;;1.33;79.90
56241;BME280;42155;53.096;23.226;2023-11-19T01:38:42;100532.78;;;1.37;79.89
56241;BME280;42155;53.096;23.226;2023-11-19T01:40:43;100523.44;;;1.30;79.55
56241;BME280;42155;53.096;23.226;2023-11-19T01:42:43;100509.97;;;1.16;80.17
56241;BME280;42155;53.096;23.226;2023-11-19T01:44:55;100488.63;;;1.01;79.88
56241;BME280;42155;53.096;23.226;2023-11-19T01:46:57;100509.84;;;1.19;79.86
56241;BME280;42155;53.096;23.226;2023-11-19T01:48:58;100494.38;;;1.13;80.02
56241;BME280;42155;53.096;23.226;2023-11-19T01:51:00;100476.88;;;1.15;80.33
56241;BME280;42155;53.096;23.226;2023-11-19T01:53:00;100512.66;;;1.39;79.95
56241;BME280;42155;53.096;23.226;2023-11-19T01:55:01;100503.06;;;1.40;79.38
56241;BME280;42155;53.096;23.226;2023-11-19T01:57:02;100503.09;;;1.38;79.31
56241;BME280;42155;53.096;23.226;2023-11-19T01:59:03;100499.00;;;1.31;80.07
56241;BME280;42155;53.096;23.226;2023-11-19T02:01:05;100507.38;;;1.41;80.13
56241;BME280;42155;53.096;23.226;2023-11-19T02:03:08;100489.06;;;1.41;79.35
56241;BME280;42155;53.096;23.226;2023-11-19T02:05:11;100498.59;;;1.43;79.43
56241;BME280;42155;53.096;23.226;2023-11-19T02:07:12;100489.91;;;1.41;79.42
56241;BME280;42155;53.096;23.226;2023-11-19T02:09:12;100491.53;;;1.45;79.80
56241;BME280;42155;53.096;23.226;2023-11-19T02:11:13;100491.53;;;1.45;79.39
56241;BME280;42155;53.096;23.226;2023-11-19T02:13:13;100489.00;;;1.42;79.98
56241;BME280;42155;53.096;23.226;2023-11-19T02:15:14;100493.34;;;1.43;80.10
56241;BME280;42155;53.096;23.226;2023-11-19T02:17:30;100500.22;;;1.46;79.96
56241;BME280;42155;53.096;23.226;2023-11-19T02:19:31;100490.75;;;1.43;79.54
56241;BME280;42155;53.096;23.226;2023-11-19T02:21:31;100490.75;;;1.43;79.80
56241;BME280;42155;53.096;23.226;2023-11-19T02:23:31;100492.31;;;1.47;79.94
56241;BME280;42155;53.096;23.226;2023-11-19T02:25:32;100493.28;;;1.45;79.56
56241;BME280;42155;53.096;23.226;2023-11-19T02:28:22;100491.53;;;1.45;80.02
56241;BME280;42155;53.096;23.226;2023-11-19T02:30:15;100493.34;;;1.43;79.51
56241;BME280;42155;53.096;23.226;2023-11-19T02:32:16;100490.75;;;1.43;80.04
56241;BME280;42155;53.096;23.226;2023-11-19T02:34:16;100462.38;;;1.31;79.70
56241;BME280;42155;53.096;23.226;2023-11-19T02:36:17;100485.44;;;1.45;79.96
56241;BME280;42155;53.096;23.226;2023-11-19T02:38:17;100469.91;;;1.40;79.71
56241;BME280;42155;53.096;23.226;2023-11-19T02:40:17;100473.31;;;1.42;80.14
56241;BME280;42155;53.096;23.226;2023-11-19T02:42:18;100482.16;;;1.38;79.61
56241;BME280;42155;53.096;23.226;2023-11-19T02:44:18;100428.34;;;1.08;80.06
56241;BME280;42155;53.096;23.226;2023-11-19T02:46:18;100464.84;;;1.36;79.85
56241;BME280;42155;53.096;23.226;2023-11-19T02:48:19;100460.25;;;1.42;80.34
56241;BME280;42155;53.096;23.226;2023-11-19T02:50:20;100422.66;;;1.20;80.04
56241;BME280;42155;53.096;23.226;2023-11-19T02:52:20;100438.63;;;1.37;80.15
56241;BME280;42155;53.096;23.226;2023-11-19T02:54:21;100459.13;;;1.49;80.45
56241;BME280;42155;53.096;23.226;2023-11-19T02:56:21;100449.69;;;1.45;79.66
56241;BME280;42155;53.096;23.226;2023-11-19T02:58:21;100442.75;;;1.44;79.58
56241;BME280;42155;53.096;23.226;2023-11-19T03:00:22;100445.25;;;1.47;79.81
56241;BME280;42155;53.096;23.226;2023-11-19T03:02:22;100442.84;;;1.41;79.94
56241;BME280;42155;53.096;23.226;2023-11-19T03:04:23;100450.47;;;1.47;79.98
56241;BME280;42155;53.096;23.226;2023-11-19T03:06:24;100446.97;;;1.48;80.40
56241;BME280;42155;53.096;23.226;2023-11-19T03:08:24;100423.75;;;1.39;80.14
56241;BME280;42155;53.096;23.226;2023-11-19T03:10:24;100413.16;;;1.42;79.98
56241;BME280;42155;53.096;23.226;2023-11-19T03:12:25;100429.34;;;1.53;80.33
56241;BME280;42155;53.096;23.226;2023-11-19T03:14:25;100439.66;;;1.58;80.30
56241;BME280;42155;53.096;23.226;2023-11-19T03:16:25;100381.34;;;1.31;79.40
56241;BME280;42155;53.096;23.226;2023-11-19T03:18:26;100411.38;;;1.44;79.70
56241;BME280;42155;53.096;23.226;2023-11-19T03:20:26;100421.50;;;1.53;80.09
56241;BME280;42155;53.096;23.226;2023-11-19T03:22:26;100415.34;;;1.55;79.55
56241;BME280;42155;53.096;23.226;2023-11-19T03:24:27;100415.28;;;1.56;79.62
56241;BME280;42155;53.096;23.226;2023-11-19T03:26:27;100397.28;;;1.48;79.56
56241;BME280;42155;53.096;23.226;2023-11-19T03:28:28;100415.25;;;1.58;79.82
56241;BME280;42155;53.096;23.226;2023-11-19T03:30:29;100417.06;;;1.56;79.77
56241;BME280;42155;53.096;23.226;2023-11-19T03:32:29;100352.16;;;1.18;80.30
56241;BME280;42155;53.096;23.226;2023-11-19T03:34:30;100405.13;;;1.48;80.08
56241;BME280;42155;53.096;23.226;2023-11-19T03:36:33;100393.31;;;1.37;79.84
56241;BME280;42155;53.096;23.226;2023-11-19T03:38:33;100387.34;;;1.33;80.58
56241;BME280;42155;53.096;23.226;2023-11-19T03:40:33;100401.25;;;1.35;80.18
56241;BME280;42155;53.096;23.226;2023-11-19T03:42:34;100398.66;;;1.34;80.64
56241;BME280;42155;53.096;23.226;2023-11-19T03:44:34;100392.38;;;1.39;80.75
56241;BME280;42155;53.096;23.226;2023-11-19T03:46:35;100378.63;;;1.34;80.20
56241;BME280;42155;53.096;23.226;2023-11-19T03:48:35;100386.81;;;1.48;80.51
56241;BME280;42155;53.096;23.226;2023-11-19T03:50:35;100391.19;;;1.48;79.82
56241;BME280;42155;53.096;23.226;2023-11-19T03:52:36;100393.50;;;1.56;80.20
56241;BME280;42155;53.096;23.226;2023-11-19T03:54:36;100391.72;;;1.58;79.89
56241;BME280;42155;53.096;23.226;2023-11-19T03:56:37;100383.28;;;1.49;79.76
56241;BME280;42155;53.096;23.226;2023-11-19T03:58:38;100176.22;;;0.21;80.11
56241;BME280;42155;53.096;23.226;2023-11-19T04:00:39;100382.44;;;1.49;80.77
56241;BME280;42155;53.096;23.226;2023-11-19T04:02:40;100379.66;;;1.53;80.30
56241;BME280;42155;53.096;23.226;2023-11-19T04:04:40;100325.06;;;1.21;80.32
56241;BME280;42155;53.096;23.226;2023-11-19T04:06:41;100375.28;;;1.54;80.00
56241;BME280;42155;53.096;23.226;2023-11-19T04:08:41;100355.53;;;1.45;80.33
56241;BME280;42155;53.096;23.226;2023-11-19T04:10:41;100374.28;;;1.57;80.55
56241;BME280;42155;53.096;23.226;2023-11-19T04:12:42;100368.16;;;1.58;80.42
56241;BME280;42155;53.096;23.226;2023-11-19T04:14:42;100354.38;;;1.52;79.85
56241;BME280;42155;53.096;23.226;2023-11-19T04:16:42;100360.25;;;1.59;79.89
56241;BME280;42155;53.096;23.226;2023-11-19T04:18:43;100362.03;;;1.59;80.28
56241;BME280;42155;53.096;23.226;2023-11-19T04:20:43;100363.81;;;1.57;80.43
56241;BME280;42155;53.096;23.226;2023-11-19T04:22:43;100344.22;;;1.45;79.95
56241;BME280;42155;53.096;23.226;2023-11-19T04:24:44;100358.72;;;1.53;80.36
56241;BME280;42155;53.096;23.226;2023-11-19T04:26:45;100355.31;;;1.51;80.24
56241;BME280;42155;53.096;23.226;2023-11-19T04:28:45;100327.38;;;1.28;80.13
56241;BME280;42155;53.096;23.226;2023-11-19T04:30:45;100348.38;;;1.50;80.55
56241;BME280;42155;53.096;23.226;2023-11-19T04:32:46;100350.06;;;1.51;80.20
56241;BME280;42155;53.096;23.226;2023-11-19T04:34:46;100345.66;;;1.53;80.48
56241;BME280;42155;53.096;23.226;2023-11-19T04:36:46;100348.25;;;1.53;80.39
56241;BME280;42155;53.096;23.226;2023-11-19T04:38:47;100346.66;;;1.49;80.12
56241;BME280;42155;53.096;23.226;2023-11-19T04:40:47;100336.44;;;1.43;80.37
56241;BME280;42155;53.096;23.226;2023-11-19T04:42:47;100326.00;;;1.43;80.39
56241;BME280;42155;53.096;23.226;2023-11-19T04:44:48;100336.28;;;1.48;80.67
56241;BME280;42155;53.096;23.226;2023-11-19T04:46:48;100336.13;;;1.51;80.51
56241;BME280;42155;53.096;23.226;2023-11-19T04:48:49;100329.16;;;1.51;80.37
56241;BME280;42155;53.096;23.226;2023-11-19T04:50:49;100321.25;;;1.53;80.03
56241;BME280;42155;53.096;23.226;2023-11-19T04:52:50;100321.19;;;1.55;79.98
56241;BME280;42155;53.096;23.226;2023-11-19T04:54:50;100291.41;;;1.35;80.12
56241;BME280;42155;53.096;23.226;2023-11-19T04:56:51;100314.88;;;1.60;80.04
56241;BME280;42155;53.096;23.226;2023-11-19T04:58:51;100323.47;;;1.64;80.43
56241;BME280;42155;53.096;23.226;2023-11-19T05:00:51;100307.88;;;1.61;80.38
56241;BME280;42155;53.096;23.226;2023-11-19T05:02:52;100309.56;;;1.62;80.01
56241;BME280;42155;53.096;23.226;2023-11-19T05:04:52;100306.19;;;1.60;80.67
56241;BME280;42155;53.096;23.226;2023-11-19T05:06:52;100279.69;;;1.45;79.83
56241;BME280;42155;53.096;23.226;2023-11-19T05:08:53;100289.69;;;1.58;80.52
56241;BME280;42155;53.096;23.226;2023-11-19T05:10:56;100292.31;;;1.58;80.50
56241;BME280;42155;53.096;23.226;2023-11-19T05:12:56;100292.19;;;1.61;80.03
56241;BME280;42155;53.096;23.226;2023-11-19T05:14:56;100249.44;;;1.38;80.07
56241;BME280;42155;53.096;23.226;2023-11-19T05:16:57;100288.63;;;1.62;80.02
56241;BME280;42155;53.096;23.226;2023-11-19T05:18:57;100288.88;;;1.56;80.58
56241;BME280;42155;53.096;23.226;2023-11-19T05:20:58;100270.50;;;1.35;80.33
56241;BME280;42155;53.096;23.226;2023-11-19T05:22:58;100251.72;;;1.24;80.79
56241;BME280;42155;53.096;23.226;2023-11-19T05:24:59;100282.97;;;1.50;81.02
56241;BME280;42155;53.096;23.226;2023-11-19T05:27:00;100272.59;;;1.49;80.20
56241;BME280;42155;53.096;23.226;2023-11-19T05:29:00;100275.13;;;1.50;80.55
56241;BME280;42155;53.096;23.226;2023-11-19T05:31:00;100288.22;;;1.50;80.85
56241;BME280;42155;53.096;23.226;2023-11-19T05:33:01;100242.88;;;1.28;80.58
56241;BME280;42155;53.096;23.226;2023-11-19T05:35:01;100262.06;;;1.50;80.46
56241;BME280;42155;53.096;23.226;2023-11-19T05:37:01;100242.41;;;1.40;80.52
56241;BME280;42155;53.096;23.226;2023-11-19T05:39:02;100277.31;;;1.61;80.89
56241;BME280;42155;53.096;23.226;2023-11-19T05:41:03;100251.59;;;1.50;80.91
56241;BME280;42155;53.096;23.226;2023-11-19T05:43:03;100270.22;;;1.65;80.86
56241;BME280;42155;53.096;23.226;2023-11-19T05:45:04;100269.44;;;1.63;80.29
56241;BME280;42155;53.096;23.226;2023-11-19T05:47:04;100266.38;;;1.51;80.25
56241;BME280;42155;53.096;23.226;2023-11-19T05:49:05;100270.00;;;1.47;80.81
56241;BME280;42155;53.096;23.226;2023-11-19T05:51:05;100266.50;;;1.48;80.87
56241;BME280;42155;53.096;23.226;2023-11-19T05:53:05;100236.03;;;1.24;80.87
56241;BME280;42155;53.096;23.226;2023-11-19T05:55:06;100263.09;;;1.46;81.40
56241;BME280;42155;53.096;23.226;2023-11-19T05:57:06;100258.53;;;1.51;80.83
56241;BME280;42155;53.096;23.226;2023-11-19T05:59:07;100232.88;;;1.39;81.17
56241;BME280;42155;53.096;23.226;2023-11-19T06:01:07;100250.31;;;1.61;80.85
56241;BME280;42155;53.096;23.226;2023-11-19T06:03:08;100264.22;;;1.63;80.62
56241;BME280;42155;53.096;23.226;2023-11-19T06:05:08;100234.22;;;1.49;80.97
56241;BME280;42155;53.096;23.226;2023-11-19T06:07:09;100247.03;;;1.56;81.15
56241;BME280;42155;53.096;23.226;2023-11-19T06:09:09;100241.75;;;1.57;81.26
56241;BME280;42155;53.096;23.226;2023-11-19T06:11:10;100227.47;;;1.44;80.81
56241;BME280;42155;53.096;23.226;2023-11-19T06:13:10;100202.56;;;1.34;81.13
56241;BME280;42155;53.096;23.226;2023-11-19T06:15:11;100235.53;;;1.60;80.92
56241;BME280;42155;53.096;23.226;2023-11-19T06:17:11;100234.88;;;1.55;80.64
56241;BME280;42155;53.096;23.226;2023-11-19T06:19:11;100221.19;;;1.48;81.30
56241;BME280;42155;53.096;23.226;2023-11-19T06:21:12;100220.28;;;1.49;80.87
56241;BME280;42155;53.096;23.226;2023-11-19T06:23:12;100221.13;;;1.49;81.08
56241;BME280;42155;53.096;23.226;2023-11-19T06:25:13;100214.91;;;1.52;81.40
56241;BME280;42155;53.096;23.226;2023-11-19T06:27:13;100206.22;;;1.51;81.68
56241;BME280;42155;53.096;23.226;2023-11-19T06:29:13;100215.72;;;1.54;81.84
56241;BME280;42155;53.096;23.226;2023-11-19T06:31:14;100201.00;;;1.51;81.49
56241;BME280;42155;53.096;23.226;2023-11-19T06:33:14;100168.03;;;1.25;81.77
56241;BME280;42155;53.096;23.226;2023-11-19T06:35:14;100212.00;;;1.60;81.24
56241;BME280;42155;53.096;23.226;2023-11-19T06:37:15;100197.34;;;1.56;81.87
56241;BME280;42155;53.096;23.226;2023-11-19T06:39:15;100203.56;;;1.53;81.48
56241;BME280;42155;53.096;23.226;2023-11-19T06:41:15;100196.44;;;1.57;81.38
56241;BME280;42155;53.096;23.226;2023-11-19T06:43:16;100208.47;;;1.61;81.15
56241;BME280;42155;53.096;23.226;2023-11-19T06:45:16;100181.47;;;1.38;81.34
56241;BME280;42155;53.096;23.226;2023-11-19T06:47:17;100200.06;;;1.52;81.36
56241;BME280;42155;53.096;23.226;2023-11-19T06:49:17;100189.59;;;1.52;81.71
56241;BME280;42155;53.096;23.226;2023-11-19T06:51:18;100191.09;;;1.60;82.19
56241;BME280;42155;53.096;23.226;2023-11-19T06:53:18;100189.38;;;1.59;81.72
56241;BME280;42155;53.096;23.226;2023-11-19T06:55:18;100184.00;;;1.62;81.63
56241;BME280;42155;53.096;23.226;2023-11-19T06:57:19;100183.81;;;1.66;81.33
56241;BME280;42155;53.096;23.226;2023-11-19T06:59:19;100166.75;;;1.58;81.29
56241;BME280;42155;53.096;23.226;2023-11-19T07:01:19;100168.47;;;1.59;81.81
56241;BME280;42155;53.096;23.226;2023-11-19T07:03:20;100157.75;;;1.65;81.28
56241;BME280;42155;53.096;23.226;2023-11-19T07:05:20;100185.22;;;1.75;81.94
56241;BME280;42155;53.096;23.226;2023-11-19T07:07:20;100181.03;;;1.71;81.40
56241;BME280;42155;53.096;23.226;2023-11-19T07:09:21;100181.72;;;1.76;81.27
56241;BME280;42155;53.096;23.226;2023-11-19T07:11:21;100153.53;;;1.61;81.49
56241;BME280;42155;53.096;23.226;2023-11-19T07:13:23;100148.31;;;1.61;81.98
56241;BME280;42155;53.096;23.226;2023-11-19T07:15:23;100186.69;;;1.82;81.49
56241;BME280;42155;53.096;23.226;2023-11-19T07:17:24;100138.88;;;1.57;81.47
56241;BME280;42155;53.096;23.226;2023-11-19T07:19:24;100179.75;;;1.81;81.90
56241;BME280;42155;53.096;23.226;2023-11-19T07:21:24;100174.53;;;1.81;81.86
56241;BME280;42155;53.096;23.226;2023-11-19T07:23:25;100183.03;;;1.86;81.96
56241;BME280;42155;53.096;23.226;2023-11-19T07:25:25;100179.50;;;1.87;81.95
56241;BME280;42155;53.096;23.226;2023-11-19T07:27:25;100175.72;;;1.94;82.04
56241;BME280;42155;53.096;23.226;2023-11-19T07:29:26;100180.81;;;1.97;81.36
56241;BME280;42155;53.096;23.226;2023-11-19T07:31:26;100168.72;;;1.95;81.65
56241;BME280;42155;53.096;23.226;2023-11-19T07:33:26;100166.09;;;1.95;81.14
56241;BME280;42155;53.096;23.226;2023-11-19T07:35:27;100119.31;;;1.67;81.45
56241;BME280;42155;53.096;23.226;2023-11-19T07:37:27;100162.38;;;2.00;81.26
56241;BME280;42155;53.096;23.226;2023-11-19T07:39:28;100158.91;;;2.00;81.72
56241;BME280;42155;53.096;23.226;2023-11-19T07:41:28;100166.63;;;2.03;81.43
56241;BME280;42155;53.096;23.226;2023-11-19T07:43:29;100156.09;;;2.04;81.11
56241;BME280;42155;53.096;23.226;2023-11-19T07:45:29;100137.56;;;1.89;81.41
56241;BME280;42155;53.096;23.226;2023-11-19T07:47:29;100150.00;;;2.04;81.84
56241;BME280;42155;53.096;23.226;2023-11-19T07:49:30;100141.16;;;2.07;81.80
56241;BME280;42155;53.096;23.226;2023-11-19T07:51:30;100144.81;;;2.02;81.81
56241;BME280;42155;53.096;23.226;2023-11-19T07:53:30;100099.16;;;1.89;81.75
56241;BME280;42155;53.096;23.226;2023-11-19T07:55:31;100117.75;;;2.03;81.55
56241;BME280;42155;53.096;23.226;2023-11-19T07:57:31;100133.06;;;2.13;81.43
56241;BME280;42155;53.096;23.226;2023-11-19T07:59:31;100117.69;;;2.05;81.20
56241;BME280;42155;53.096;23.226;2023-11-19T08:01:32;100075.75;;;1.86;81.37
56241;BME280;42155;53.096;23.226;2023-11-19T08:03:33;100120.56;;;2.19;81.56
56241;BME280;42155;53.096;23.226;2023-11-19T08:05:33;100132.66;;;2.22;81.46
56241;BME280;42155;53.096;23.226;2023-11-19T08:07:33;100130.09;;;2.20;81.15
56241;BME280;42155;53.096;23.226;2023-11-19T08:09:34;100102.53;;;2.12;81.22
56241;BME280;42155;53.096;23.226;2023-11-19T08:11:34;100110.16;;;2.18;81.31
56241;BME280;42155;53.096;23.226;2023-11-19T08:13:34;100098.13;;;2.14;81.06
56241;BME280;42155;53.096;23.226;2023-11-19T08:15:35;100092.28;;;2.07;81.58
56241;BME280;42155;53.096;23.226;2023-11-19T08:17:35;100098.13;;;2.14;81.45
56241;BME280;42155;53.096;23.226;2023-11-19T08:19:35;100090.06;;;2.18;81.19
56241;BME280;42155;53.096;23.226;2023-11-19T08:21:36;100090.78;;;2.22;81.73
56241;BME280;42155;53.096;23.226;2023-11-19T08:23:36;100081.16;;;2.22;81.15
56241;BME280;42155;53.096;23.226;2023-11-19T08:25:36;100056.47;;;2.08;81.43
56241;BME280;42155;53.096;23.226;2023-11-19T08:27:37;100080.22;;;2.23;81.58
56241;BME280;42155;53.096;23.226;2023-11-19T08:29:37;100088.94;;;2.24;81.00
56241;BME280;42155;53.096;23.226;2023-11-19T08:31:37;100083.78;;;2.22;81.06
56241;BME280;42155;53.096;23.226;2023-11-19T08:33:38;100099.28;;;2.27;81.71
56241;BME280;42155;53.096;23.226;2023-11-19T08:35:38;100088.00;;;2.25;81.39
56241;BME280;42155;53.096;23.226;2023-11-19T08:37:38;100086.97;;;2.29;81.58
56241;BME280;42155;53.096;23.226;2023-11-19T08:39:39;100054.72;;;2.08;81.06
56241;BME280;42155;53.096;23.226;2023-11-19T08:41:39;100083.63;;;2.25;81.94
56241;BME280;42155;53.096;23.226;2023-11-19T08:43:39;100071.53;;;2.23;81.05
56241;BME280;42155;53.096;23.226;2023-11-19T08:45:40;100034.13;;;2.00;81.31
56241;BME280;42155;53.096;23.226;2023-11-19T08:47:40;100071.53;;;2.23;81.85
56241;BME280;42155;53.096;23.226;2023-11-19T08:49:40;100080.88;;;2.28;81.02
56241;BME280;42155;53.096;23.226;2023-11-19T08:51:41;100089.56;;;2.29;81.62
56241;BME280;42155;53.096;23.226;2023-11-19T08:53:41;100065.38;;;2.24;81.12
56241;BME280;42155;53.096;23.226;2023-11-19T08:55:41;100058.28;;;2.26;81.14
56241;BME280;42155;53.096;23.226;2023-11-19T08:57:42;100053.44;;;2.17;81.50
56241;BME280;42155;53.096;23.226;2023-11-19T08:59:42;100007.31;;;1.95;81.63
56241;BME280;42155;53.096;23.226;2023-11-19T09:01:42;100047.38;;;2.16;81.18
56241;BME280;42155;53.096;23.226;2023-11-19T09:03:43;100038.63;;;2.17;81.24
56241;BME280;42155;53.096;23.226;2023-11-19T09:05:43;100014.03;;;2.01;81.42
56241;BME280;42155;53.096;23.226;2023-11-19T09:07:43;100039.50;;;2.16;81.58
56241;BME280;42155;53.096;23.226;2023-11-19T09:09:44;100052.00;;;2.30;81.02
56241;BME280;42155;53.096;23.226;2023-11-19T09:11:44;100052.91;;;2.29;81.08
56241;BME280;42155;53.096;23.226;2023-11-19T09:13:44;100053.69;;;2.31;80.81
56241;BME280;42155;53.096;23.226;2023-11-19T09:15:45;100043.38;;;2.28;81.37
56241;BME280;42155;53.096;23.226;2023-11-19T09:17:45;100029.63;;;2.23;81.26
56241;BME280;42155;53.096;23.226;2023-11-19T09:19:45;100046.81;;;2.28;80.87
56241;BME280;42155;53.096;23.226;2023-11-19T09:21:46;100034.59;;;2.29;81.49
56241;BME280;42155;53.096;23.226;2023-11-19T09:23:46;100042.34;;;2.30;80.76
56241;BME280;42155;53.096;23.226;2023-11-19T09:25:46;100025.44;;;2.19;81.36
56241;BME280;42155;53.096;23.226;2023-11-19T09:27:47;100036.28;;;2.30;81.07
56241;BME280;42155;53.096;23.226;2023-11-19T09:29:47;100025.81;;;2.30;81.57
56241;BME280;42155;53.096;23.226;2023-11-19T09:31:47;100007.34;;;2.14;81.08
56241;BME280;42155;53.096;23.226;2023-11-19T09:33:48;100036.56;;;2.24;80.81
56241;BME280;42155;53.096;23.226;2023-11-19T09:35:48;100028.06;;;2.19;81.66
56241;BME280;42155;53.096;23.226;2023-11-19T09:37:48;99987.66;;;2.06;81.59
56241;BME280;42155;53.096;23.226;2023-11-19T09:39:49;100022.41;;;2.28;81.68
56241;BME280;42155;53.096;23.226;2023-11-19T09:41:49;100020.56;;;2.30;80.90
56241;BME280;42155;53.096;23.226;2023-11-19T09:43:49;99973.84;;;2.02;81.52
56241;BME280;42155;53.096;23.226;2023-11-19T09:45:50;100020.44;;;2.33;81.52
56241;BME280;42155;53.096;23.226;2023-11-19T09:47:51;100013.50;;;2.32;81.42
56241;BME280;42155;53.096;23.226;2023-11-19T09:49:52;100023.69;;;2.38;81.19
56241;BME280;42155;53.096;23.226;2023-11-19T09:51:53;100013.28;;;2.37;81.53
56241;BME280;42155;53.096;23.226;2023-11-19T09:53:54;100013.34;;;2.35;81.59
56241;BME280;42155;53.096;23.226;2023-11-19T09:55:55;100011.66;;;2.34;81.55
56241;BME280;42155;53.096;23.226;2023-11-19T09:57:56;100003.16;;;2.29;81.08
56241;BME280;42155;53.096;23.226;2023-11-19T09:59:57;99999.50;;;2.33;81.02
56241;BME280;42155;53.096;23.226;2023-11-19T10:01:59;99997.09;;;2.28;81.01
56241;BME280;42155;53.096;23.226;2023-11-19T10:04:00;100000.47;;;2.30;81.07
56241;BME280;42155;53.096;23.226;2023-11-19T10:06:02;99994.38;;;2.30;81.12
56241;BME280;42155;53.096;23.226;2023-11-19T10:08:02;99998.56;;;2.34;81.76
56241;BME280;42155;53.096;23.226;2023-11-19T10:10:03;99995.19;;;2.32;81.68
56241;BME280;42155;53.096;23.226;2023-11-19T10:12:04;99976.97;;;2.29;81.48
56241;BME280;42155;53.096;23.226;2023-11-19T10:14:04;99973.72;;;2.24;81.69
56241;BME280;42155;53.096;23.226;2023-11-19T10:16:09;99973.31;;;2.33;81.38
56241;BME280;42155;53.096;23.226;2023-11-19T10:18:09;99954.47;;;2.25;81.14
56241;BME280;42155;53.096;23.226;2023-11-19T10:20:10;99974.16;;;2.34;81.15
56241;BME280;42155;53.096;23.226;2023-11-19T10:22:11;99969.88;;;2.31;81.67
56241;BME280;42155;53.096;23.226;2023-11-19T10:24:11;99973.22;;;2.35;81.33
56241;BME280;42155;53.096;23.226;2023-11-19T10:26:11;99969.00;;;2.32;81.08
56241;BME280;42155;53.096;23.226;2023-11-19T10:28:15;99968.81;;;2.35;81.70
56241;BME280;42155;53.096;23.226;2023-11-19T10:30:23;99961.91;;;2.34;81.17